createdAt,value
2023-03-28T00:00:47.513Z,2.35
2023-03-28T00:03:14.553Z,2.30
2023-03-28T00:05:41.713Z,1.92
2023-03-28T00:08:09.117Z,3.38
2023-03-28T00:10:35.674Z,3.58
2023-03-28T00:13:02.268Z,2.67
2023-03-28T00:15:28.924Z,3.03
2023-03-28T00:17:58.271Z,3.25
2023-03-28T00:20:24.885Z,1.85
2023-03-28T00:22:51.658Z,2.65
2023-03-28T00:25:18.397Z,2.40
2023-03-28T00:27:45.014Z,2.93
2023-03-28T00:30:11.886Z,2.42
2023-03-28T00:32:38.501Z,1.88
2023-03-28T00:35:05.489Z,1.38
2023-03-28T00:37:34.535Z,1.73
2023-03-28T00:40:01.920Z,2.63
2023-03-28T00:42:28.526Z,2.55
2023-03-28T00:44:56.822Z,1.95
2023-03-28T00:47:36.785Z,1.27
2023-03-28T00:50:20.494Z,1.95
2023-03-28T00:52:56.143Z,1.10
2023-03-28T00:55:30.686Z,1.20
2023-03-28T00:57:58.843Z,1.20
2023-03-28T01:00:26.253Z,1.17
2023-03-28T01:02:56.573Z,1.95
2023-03-28T01:05:30.591Z,1.83
2023-03-28T01:08:03.186Z,1.52
2023-03-28T01:10:32.360Z,1.20
2023-03-28T01:13:02.044Z,1.67
2023-03-28T01:15:30.264Z,1.50
2023-03-28T01:18:03.070Z,1.13
2023-03-28T01:20:35.970Z,1.77
2023-03-28T01:23:28.106Z,3.97
2023-03-28T01:26:13.014Z,3.72
2023-03-28T01:29:20.710Z,4.03
2023-03-28T01:32:09.069Z,4.20
2023-03-28T01:34:56.581Z,2.28
2023-03-28T01:37:38.199Z,2.45
2023-03-28T01:40:19.984Z,4.35
2023-03-28T01:42:58.626Z,3.50
2023-03-28T01:45:46.179Z,4.63
2023-03-28T01:48:37.059Z,2.28
2023-03-28T01:51:12.180Z,3.17
2023-03-28T01:53:52.560Z,2.28
2023-03-28T01:56:38.591Z,2.63
2023-03-28T01:59:26.814Z,4.43
2023-03-28T02:02:03.960Z,5.40
2023-03-28T02:04:33.347Z,3.78
2023-03-28T02:07:01.763Z,2.80
2023-03-28T02:09:30.631Z,3.47
2023-03-28T02:12:10.369Z,3.60
2023-03-28T02:14:41.463Z,2.95
2023-03-28T02:17:16.064Z,2.75
2023-03-28T02:19:55.218Z,3.00
2023-03-28T02:22:30.116Z,4.10
2023-03-28T02:24:56.770Z,2.90
2023-03-28T02:27:23.734Z,3.05
2023-03-28T02:29:50.510Z,3.40
2023-03-28T02:32:17.793Z,3.75
2023-03-28T02:34:48.762Z,3.53
2023-03-28T02:37:21.236Z,2.90
2023-03-28T02:40:15.305Z,5.78
2023-03-28T02:43:09.230Z,2.70
2023-03-28T02:45:46.471Z,4.43
2023-03-28T02:48:40.778Z,2.92
2023-03-28T02:51:30.157Z,5.67
2023-03-28T02:54:36.006Z,3.25
2023-03-28T02:57:08.151Z,3.72
2023-03-28T02:59:42.660Z,4.50
2023-03-28T03:02:09.364Z,5.85
2023-03-28T03:04:36.200Z,6.23
2023-03-28T03:07:02.926Z,6.10
2023-03-28T03:09:29.672Z,7.25
2023-03-28T03:11:56.275Z,4.45
2023-03-28T03:14:23.288Z,4.97
2023-03-28T03:16:51.682Z,3.30
2023-03-28T03:19:19.504Z,3.50
2023-03-28T03:21:46.598Z,3.38
2023-03-28T03:24:14.370Z,2.30
2023-03-28T03:26:41.120Z,3.13
2023-03-28T03:29:07.805Z,2.20
2023-03-28T03:31:34.582Z,3.75
2023-03-28T03:34:02.023Z,3.00
2023-03-28T03:36:30.532Z,2.65
2023-03-28T03:38:57.182Z,3.03
2023-03-28T03:41:23.809Z,2.60
2023-03-28T03:43:50.394Z,3.05
2023-03-28T03:46:17.111Z,3.00
2023-03-28T03:48:49.168Z,1.70
2023-03-28T03:51:16.914Z,3.17
2023-03-28T03:53:43.465Z,2.23
2023-03-28T03:56:10.653Z,3.60
2023-03-28T03:58:37.440Z,3.53
2023-03-28T04:01:04.317Z,2.85
2023-03-28T04:03:31.034Z,3.35
2023-03-28T04:05:58.267Z,2.57
2023-03-28T04:08:25.330Z,3.42
2023-03-28T04:10:52.279Z,2.65
2023-03-28T04:13:19.088Z,2.10
2023-03-28T04:15:48.819Z,2.20
2023-03-28T04:18:17.687Z,3.63
2023-03-28T04:20:49.605Z,3.78
2023-03-28T04:23:18.472Z,1.90
2023-03-28T04:25:45.026Z,2.10
2023-03-28T04:28:11.612Z,4.43
2023-03-28T04:30:38.289Z,3.83
2023-03-28T04:33:04.931Z,4.10
2023-03-28T04:35:35.474Z,2.50
2023-03-28T04:38:02.726Z,2.17
2023-03-28T04:40:29.476Z,3.80
2023-03-28T04:42:56.091Z,2.13
2023-03-28T04:45:23.465Z,2.90
2023-03-28T04:47:50.062Z,2.10
2023-03-28T04:50:16.958Z,2.42
2023-03-28T04:52:43.611Z,2.25
2023-03-28T04:55:10.436Z,2.40
2023-03-28T04:57:38.170Z,2.33
2023-03-28T05:00:17.899Z,3.78
2023-03-28T05:02:44.629Z,2.55
2023-03-28T05:05:11.334Z,2.28
2023-03-28T05:07:37.995Z,4.67
2023-03-28T05:10:06.150Z,6.10
2023-03-28T05:12:32.735Z,2.50
2023-03-28T05:14:59.279Z,3.10
2023-03-28T05:17:26.213Z,2.45
2023-03-28T05:19:52.828Z,4.70
2023-03-28T05:22:19.378Z,2.58
2023-03-28T05:24:45.948Z,3.70
2023-03-28T05:27:12.616Z,4.00
2023-03-28T05:29:39.427Z,2.70
2023-03-28T05:32:06.085Z,3.73
2023-03-28T05:34:34.222Z,3.53
2023-03-28T05:37:00.816Z,2.80
2023-03-28T05:39:28.329Z,2.63
2023-03-28T05:41:54.860Z,2.17
2023-03-28T05:44:21.421Z,3.17
2023-03-28T05:46:47.961Z,2.45
2023-03-28T05:49:14.520Z,4.53
2023-03-28T05:51:41.049Z,2.25
2023-03-28T05:54:07.657Z,3.80
2023-03-28T05:56:35.785Z,3.10
2023-03-28T05:59:02.564Z,2.42
2023-03-28T06:01:29.265Z,2.78
2023-03-28T06:03:56.088Z,2.35
2023-03-28T06:06:22.796Z,2.85
2023-03-28T06:08:49.356Z,2.07
2023-03-28T06:11:16.109Z,3.72
2023-03-28T06:13:42.754Z,3.28
2023-03-28T06:16:09.596Z,3.53
2023-03-28T06:18:36.435Z,3.72
2023-03-28T06:21:03.128Z,3.90
2023-03-28T06:23:29.665Z,3.70
2023-03-28T06:25:56.216Z,4.75
2023-03-28T06:28:22.906Z,3.53
2023-03-28T06:30:50.617Z,3.10
2023-03-28T06:33:17.209Z,3.10
2023-03-28T06:35:43.781Z,2.22
2023-03-28T06:38:10.754Z,2.83
2023-03-28T06:40:37.492Z,4.07
2023-03-28T06:43:04.063Z,5.30
2023-03-28T06:45:30.735Z,4.80
2023-03-28T06:47:57.332Z,7.18
2023-03-28T06:50:23.965Z,4.15
2023-03-28T06:52:50.661Z,3.25
2023-03-28T06:55:17.305Z,4.10
2023-03-28T06:57:46.035Z,4.67
2023-03-28T07:00:13.127Z,3.78
2023-03-28T07:02:39.771Z,4.82
2023-03-28T07:05:07.070Z,3.83
2023-03-28T07:07:33.616Z,4.93
2023-03-28T07:10:00.245Z,4.67
2023-03-28T07:12:26.817Z,4.40
2023-03-28T07:14:53.381Z,4.05
2023-03-28T07:17:20.730Z,5.97
2023-03-28T07:19:51.101Z,5.43
2023-03-28T07:22:17.712Z,2.77
2023-03-28T07:24:44.258Z,3.97
2023-03-28T07:27:15.986Z,3.75
2023-03-28T07:29:43.662Z,4.07
2023-03-28T07:32:10.874Z,5.30
2023-03-28T07:34:37.420Z,3.60
2023-03-28T07:37:05.177Z,4.68
2023-03-28T07:39:32.346Z,3.05
2023-03-28T07:41:58.897Z,3.65
2023-03-28T07:44:25.438Z,3.40
2023-03-28T07:46:52.863Z,3.40
2023-03-28T07:49:21.113Z,4.05
2023-03-28T07:51:48.095Z,5.57
2023-03-28T07:54:17.773Z,4.05
2023-03-28T07:56:46.018Z,3.97
2023-03-28T07:59:13.644Z,3.33
2023-03-28T08:01:41.961Z,2.83
2023-03-28T08:04:09.319Z,3.53
2023-03-28T08:06:38.274Z,3.22
2023-03-28T08:09:13.005Z,4.70
2023-03-28T08:11:41.733Z,2.83
2023-03-28T08:14:11.882Z,3.72
2023-03-28T08:16:39.176Z,2.35
2023-03-28T08:19:11.359Z,4.30
2023-03-28T08:21:38.693Z,3.28
2023-03-28T08:24:07.736Z,4.13
2023-03-28T08:26:34.598Z,3.10
2023-03-28T08:29:01.139Z,2.53
2023-03-28T08:31:29.014Z,4.07
2023-03-28T08:33:56.468Z,3.42
2023-03-28T08:36:25.221Z,3.37
2023-03-28T08:38:53.222Z,4.20
2023-03-28T08:41:48.720Z,2.28
2023-03-28T08:44:35.613Z,2.72
2023-03-28T08:47:27.783Z,2.00
2023-03-28T08:50:01.418Z,2.53
2023-03-28T08:52:29.078Z,1.70
2023-03-28T08:55:06.375Z,3.08
2023-03-28T08:57:35.982Z,2.10
2023-03-28T09:00:19.506Z,2.28
2023-03-28T09:02:46.317Z,2.33
2023-03-28T09:05:23.803Z,2.95
2023-03-28T09:07:50.656Z,2.78
2023-03-28T09:10:34.217Z,1.92
2023-03-28T09:13:22.134Z,3.38
2023-03-28T09:16:24.237Z,3.93
2023-03-28T09:19:12.595Z,2.83
2023-03-28T09:22:12.813Z,3.17
2023-03-28T09:25:08.547Z,2.42
2023-03-28T09:27:43.676Z,2.90
2023-03-28T09:30:20.749Z,2.00
2023-03-28T09:32:53.146Z,2.30
2023-03-28T09:35:22.197Z,1.38
2023-03-28T09:38:00.941Z,2.22
2023-03-28T09:40:30.644Z,1.23
2023-03-28T09:43:06.215Z,1.13
2023-03-28T09:45:36.148Z,2.17
2023-03-28T09:48:05.026Z,1.90
2023-03-28T09:50:31.716Z,2.38
2023-03-28T09:52:58.716Z,2.72
2023-03-28T09:55:28.860Z,1.50
2023-03-28T09:57:59.406Z,2.53
2023-03-28T10:00:27.320Z,2.55
2023-03-28T10:02:54.648Z,2.47
2023-03-28T10:05:36.890Z,3.08
2023-03-28T10:08:18.845Z,2.53
2023-03-28T10:10:55.098Z,2.47
2023-03-28T10:13:23.483Z,2.15
2023-03-28T10:15:50.711Z,1.58
2023-03-28T10:18:20.305Z,1.95
2023-03-28T10:20:50.137Z,1.60
2023-03-28T10:23:17.129Z,2.55
2023-03-28T10:25:49.934Z,1.20
2023-03-28T10:28:23.522Z,1.15
2023-03-28T10:30:56.158Z,1.40
2023-03-28T10:33:42.984Z,2.97
2023-03-28T10:36:12.770Z,1.63
2023-03-28T10:38:49.807Z,2.17
2023-03-28T10:41:29.465Z,1.30
2023-03-28T10:43:57.118Z,1.55
2023-03-28T10:46:32.762Z,1.37
2023-03-28T10:49:15.607Z,1.60
2023-03-28T10:51:43.264Z,3.42
2023-03-28T10:54:18.891Z,2.10
2023-03-28T10:56:54.831Z,2.17
2023-03-28T10:59:47.193Z,1.90
2023-03-28T11:02:51.688Z,1.60
2023-03-28T11:05:42.595Z,1.55
2023-03-28T11:08:27.420Z,2.47
2023-03-28T11:11:00.100Z,2.90
2023-03-28T11:13:44.855Z,2.27
2023-03-28T11:16:25.505Z,2.85
2023-03-28T11:18:57.383Z,1.52
2023-03-28T11:21:38.110Z,3.15
2023-03-28T11:24:52.949Z,2.00
2023-03-28T11:27:29.061Z,2.73
2023-03-28T11:30:10.493Z,2.03
2023-03-28T11:33:16.668Z,1.65
2023-03-28T11:35:59.179Z,1.80
2023-03-28T11:38:36.074Z,2.70
2023-03-28T11:41:10.395Z,3.80
2023-03-28T11:43:51.496Z,2.15
2023-03-28T11:46:35.211Z,2.35
2023-03-28T11:49:29.905Z,2.17
2023-03-28T11:52:20.401Z,2.33
2023-03-28T11:55:22.350Z,4.63
2023-03-28T11:58:15.248Z,2.83
2023-03-28T12:00:47.339Z,1.40
2023-03-28T12:03:30.413Z,1.95
2023-03-28T12:06:14.086Z,3.22
2023-03-28T12:08:57.729Z,3.23
2023-03-28T12:11:34.900Z,2.28
2023-03-28T12:14:23.636Z,2.10
2023-03-28T12:16:53.395Z,1.38
2023-03-28T12:19:32.745Z,1.75
2023-03-28T12:22:13.631Z,3.80
2023-03-28T12:24:56.032Z,1.42
2023-03-28T12:28:10.248Z,1.52
2023-03-28T12:31:06.344Z,3.33
2023-03-28T12:34:02.362Z,3.35
2023-03-28T12:36:34.723Z,1.67
2023-03-28T12:39:10.002Z,3.80
2023-03-28T12:41:39.972Z,2.15
2023-03-28T12:44:17.133Z,1.98
2023-03-28T12:46:50.266Z,2.05
2023-03-28T12:49:39.137Z,1.93
2023-03-28T12:52:09.939Z,1.88
2023-03-28T12:54:54.231Z,1.80
2023-03-28T12:57:41.203Z,7.50
2023-03-28T13:00:25.777Z,2.45
2023-03-28T13:03:05.059Z,1.30
2023-03-28T13:05:39.492Z,2.33
2023-03-28T13:08:45.011Z,3.22
2023-03-28T13:11:33.376Z,1.77
2023-03-28T13:14:23.289Z,1.67
2023-03-28T13:16:56.914Z,1.53
2023-03-28T13:19:46.345Z,2.13
2023-03-28T13:22:42.236Z,2.40
2023-03-28T13:25:28.053Z,1.92
2023-03-28T13:28:00.971Z,1.70
2023-03-28T13:30:30.061Z,1.97
2023-03-28T13:32:59.614Z,1.58
2023-03-28T13:35:46.540Z,3.20
2023-03-28T13:38:29.244Z,1.60
2023-03-28T13:41:12.735Z,2.40
2023-03-28T13:43:50.985Z,2.10
2023-03-28T13:46:36.008Z,1.20
2023-03-28T13:49:06.633Z,1.52
2023-03-28T13:51:56.283Z,3.08
2023-03-28T13:54:24.154Z,1.60
2023-03-28T13:56:53.201Z,2.43
2023-03-28T13:59:19.856Z,1.75
2023-03-28T14:01:46.669Z,1.30
2023-03-28T14:04:20.530Z,1.42
2023-03-28T14:06:48.055Z,1.90
2023-03-28T14:09:27.755Z,1.50
2023-03-28T14:11:56.241Z,3.25
2023-03-28T14:14:32.204Z,2.60
2023-03-28T14:17:03.770Z,1.50
2023-03-28T14:19:40.573Z,1.63
2023-03-28T14:22:13.488Z,2.13
2023-03-28T14:24:40.292Z,1.65
2023-03-28T14:27:12.618Z,1.50
2023-03-28T14:29:53.867Z,2.22
2023-03-28T14:32:32.152Z,1.60
2023-03-28T14:35:23.636Z,1.73
2023-03-28T14:37:53.229Z,2.17
2023-03-28T14:40:32.927Z,4.28
2023-03-28T14:43:02.836Z,1.30
2023-03-28T14:45:30.874Z,1.85
2023-03-28T14:47:58.636Z,2.10
2023-03-28T14:50:30.859Z,1.55
2023-03-28T14:53:03.680Z,2.03
2023-03-28T14:55:32.292Z,2.97
2023-03-28T14:58:00.483Z,1.50
2023-03-28T15:00:36.162Z,1.27
2023-03-28T15:03:07.348Z,1.88
2023-03-28T15:05:35.236Z,2.13
2023-03-28T15:08:02.613Z,1.75
2023-03-28T15:10:30.205Z,2.53
2023-03-28T15:13:14.143Z,2.37
2023-03-28T15:15:46.264Z,1.75
2023-03-28T15:18:16.499Z,5.13
2023-03-28T15:20:47.995Z,1.80
2023-03-28T15:23:19.970Z,2.45
2023-03-28T15:25:47.063Z,3.83
2023-03-28T15:28:18.124Z,2.50
2023-03-28T15:30:46.576Z,1.75
2023-03-28T15:33:20.243Z,2.97
2023-03-28T15:35:46.955Z,1.45
2023-03-28T15:38:13.443Z,3.23
2023-03-28T15:40:46.028Z,1.83
2023-03-28T15:43:54.083Z,3.38
2023-03-28T15:46:28.318Z,2.05
2023-03-28T15:48:59.197Z,2.50
2023-03-28T15:51:30.208Z,2.73
2023-03-28T15:54:00.013Z,6.20
2023-03-28T15:56:31.253Z,1.88
2023-03-28T15:59:02.980Z,1.95
2023-03-28T16:01:31.977Z,2.40
2023-03-28T16:04:25.635Z,2.40
2023-03-28T16:07:04.825Z,2.30
2023-03-28T16:09:31.908Z,2.40
2023-03-28T16:12:00.497Z,3.60
2023-03-28T16:14:27.885Z,3.13
2023-03-28T16:16:56.428Z,2.23
2023-03-28T16:19:26.960Z,3.10
2023-03-28T16:21:54.051Z,3.15
2023-03-28T16:24:21.514Z,4.07
2023-03-28T16:26:48.426Z,2.38
2023-03-28T16:29:14.957Z,1.87
2023-03-28T16:31:41.789Z,3.50
2023-03-28T16:34:10.091Z,4.43
2023-03-28T16:36:37.686Z,4.53
2023-03-28T16:39:06.332Z,2.63
2023-03-28T16:41:32.905Z,3.67
2023-03-28T16:43:59.503Z,3.45
2023-03-28T16:46:26.483Z,2.25
2023-03-28T16:48:53.095Z,2.67
2023-03-28T16:51:19.783Z,5.53
2023-03-28T16:53:46.373Z,4.47
2023-03-28T16:56:14.908Z,4.22
2023-03-28T16:58:42.141Z,5.55
2023-03-28T17:01:12.192Z,4.18
2023-03-28T17:03:39.113Z,6.45
2023-03-28T17:06:08.511Z,6.27
2023-03-28T17:08:35.929Z,5.97
2023-03-28T17:11:06.306Z,5.18
2023-03-28T17:13:34.362Z,6.30
2023-03-28T17:16:01.584Z,6.60
2023-03-28T17:18:29.872Z,5.33
2023-03-28T17:21:01.949Z,3.92
2023-03-28T17:23:28.720Z,5.78
2023-03-28T17:25:56.804Z,4.10
2023-03-28T17:28:24.455Z,4.68
2023-03-28T17:30:51.274Z,5.40
2023-03-28T17:33:18.241Z,9.80
2023-03-28T17:35:45.532Z,5.20
2023-03-28T17:38:14.565Z,4.97
2023-03-28T17:40:48.468Z,4.40
2023-03-28T17:43:16.719Z,6.83
2023-03-28T17:45:52.716Z,7.65
2023-03-28T17:48:21.200Z,9.82
2023-03-28T17:50:54.858Z,12.10
2023-03-28T17:53:21.858Z,12.82
2023-03-28T17:55:48.439Z,9.80
2023-03-28T17:58:16.014Z,14.15
2023-03-28T18:00:42.727Z,6.80
2023-03-28T18:03:09.439Z,8.55
2023-03-28T18:05:36.072Z,7.80
2023-03-28T18:08:02.982Z,8.03
2023-03-28T18:10:29.677Z,6.72
2023-03-28T18:12:58.828Z,8.02
2023-03-28T18:15:25.480Z,7.88
2023-03-28T18:17:54.503Z,11.95
2023-03-28T18:20:23.700Z,8.93
2023-03-28T18:22:51.573Z,13.30
2023-03-28T18:25:20.603Z,16.88
2023-03-28T18:27:47.204Z,19.65
2023-03-28T18:30:14.360Z,14.48
2023-03-28T18:32:41.173Z,12.43
2023-03-28T18:35:09.600Z,11.82
2023-03-28T18:37:38.383Z,12.15
2023-03-28T18:40:07.637Z,12.45
2023-03-28T18:42:36.468Z,12.45
2023-03-28T18:45:04.239Z,12.77
2023-03-28T18:47:31.102Z,12.95
2023-03-28T18:49:58.637Z,19.00
2023-03-28T18:52:29.042Z,16.00
2023-03-28T18:54:59.789Z,19.42
2023-03-28T18:57:27.795Z,13.20
2023-03-28T18:59:56.046Z,15.30
2023-03-28T19:02:23.683Z,17.52
2023-03-28T19:04:50.612Z,16.70
2023-03-28T19:07:18.139Z,14.68
2023-03-28T19:09:45.135Z,18.27
2023-03-28T19:12:12.308Z,21.17
2023-03-28T19:14:39.363Z,20.75
2023-03-28T19:17:07.201Z,21.55
2023-03-28T19:19:37.440Z,20.23
2023-03-28T19:22:06.418Z,14.93
2023-03-28T19:24:33.866Z,20.30
2023-03-28T19:27:02.559Z,18.30
2023-03-28T19:29:32.072Z,14.27
2023-03-28T19:31:58.806Z,19.27
2023-03-28T19:34:25.383Z,19.30
2023-03-28T19:36:51.987Z,13.93
2023-03-28T19:39:18.890Z,11.10
2023-03-28T19:41:46.019Z,12.25
2023-03-28T19:44:14.211Z,12.00
2023-03-28T19:46:40.966Z,10.73
2023-03-28T19:49:08.062Z,12.73
2023-03-28T19:51:35.487Z,12.68
2023-03-28T19:54:05.027Z,11.55
2023-03-28T19:56:31.753Z,14.35
2023-03-28T19:58:58.448Z,17.23
2023-03-28T20:01:25.113Z,13.00
2023-03-28T20:03:53.201Z,15.93
2023-03-28T20:06:21.361Z,14.65
2023-03-28T20:08:48.108Z,9.10
2023-03-28T20:11:15.996Z,12.50
2023-03-28T20:13:43.244Z,12.25
2023-03-28T20:16:12.122Z,11.60
2023-03-28T20:18:39.559Z,14.25
2023-03-28T20:21:09.720Z,13.90
2023-03-28T20:23:37.493Z,12.00
2023-03-28T20:26:19.523Z,11.93
2023-03-28T20:28:56.938Z,12.23
2023-03-28T20:31:24.863Z,14.05
2023-03-28T20:33:53.099Z,12.43
2023-03-28T20:36:20.030Z,17.73
2023-03-28T20:38:47.629Z,14.10
2023-03-28T20:41:16.722Z,10.93
2023-03-28T20:43:50.303Z,11.30
2023-03-28T20:46:21.077Z,9.30
2023-03-28T20:48:52.242Z,14.83
2023-03-28T20:51:22.539Z,12.90
2023-03-28T20:53:54.571Z,10.82
2023-03-28T20:56:21.933Z,11.82
2023-03-28T20:58:50.578Z,18.05
2023-03-28T21:01:18.417Z,10.73
2023-03-28T21:03:51.770Z,15.50
2023-03-28T21:06:25.303Z,15.27
2023-03-28T21:08:54.219Z,14.07
2023-03-28T21:11:23.795Z,17.63
2023-03-28T21:13:50.469Z,15.17
2023-03-28T21:16:17.407Z,14.20
2023-03-28T21:18:44.749Z,18.08
2023-03-28T21:21:13.594Z,13.68
2023-03-28T21:23:41.057Z,19.35
2023-03-28T21:26:13.351Z,13.03
2023-03-28T21:28:40.104Z,13.73
2023-03-28T21:31:13.257Z,16.63
2023-03-28T21:33:41.580Z,13.75
2023-03-28T21:36:12.147Z,11.10
2023-03-28T21:38:39.871Z,11.03
2023-03-28T21:41:07.540Z,13.73
2023-03-28T21:43:35.070Z,15.40
2023-03-28T21:46:02.948Z,13.77
2023-03-28T21:48:30.055Z,13.85
2023-03-28T21:51:01.473Z,14.23
2023-03-28T21:53:31.307Z,8.07
2023-03-28T21:55:59.531Z,9.90
2023-03-28T21:58:29.045Z,16.83
2023-03-28T22:00:55.966Z,15.40
2023-03-28T22:03:23.120Z,16.57
2023-03-28T22:05:54.369Z,13.02
2023-03-28T22:08:22.201Z,14.27
2023-03-28T22:10:52.968Z,21.08
2023-03-28T22:13:20.345Z,20.40
2023-03-28T22:15:46.994Z,14.20
2023-03-28T22:18:13.800Z,16.75
2023-03-28T22:20:43.650Z,11.18
2023-03-28T22:23:11.142Z,11.65
2023-03-28T22:25:38.793Z,12.77
2023-03-28T22:28:08.324Z,14.43
2023-03-28T22:30:36.402Z,15.88
2023-03-28T22:33:04.011Z,14.30
2023-03-28T22:35:32.350Z,15.23
2023-03-28T22:37:59.975Z,16.10
2023-03-28T22:40:26.784Z,15.30
2023-03-28T22:42:57.035Z,18.30
2023-03-28T22:45:26.450Z,17.25
2023-03-28T22:47:53.296Z,14.70
2023-03-28T22:50:22.529Z,14.50
2023-03-28T22:52:52.987Z,13.50
2023-03-28T22:55:23.563Z,14.18
2023-03-28T22:57:53.169Z,21.20
2023-03-28T23:00:23.669Z,21.75
2023-03-28T23:02:51.964Z,18.67
2023-03-28T23:05:19.704Z,21.80
2023-03-28T23:07:46.544Z,19.83
2023-03-28T23:10:17.068Z,25.90
2023-03-28T23:12:44.082Z,20.95
2023-03-28T23:15:11.805Z,17.15
2023-03-28T23:17:38.932Z,16.70
2023-03-28T23:20:12.893Z,13.90
2023-03-28T23:22:41.114Z,9.77
2023-03-28T23:25:08.782Z,16.98
2023-03-28T23:27:35.787Z,17.95
2023-03-28T23:30:02.474Z,15.35
2023-03-28T23:32:29.219Z,18.33
2023-03-28T23:34:55.940Z,29.13
2023-03-28T23:37:26.099Z,22.17
2023-03-28T23:39:53.879Z,23.13
2023-03-28T23:42:21.681Z,20.50
2023-03-28T23:44:48.489Z,20.23
2023-03-28T23:47:15.770Z,19.38
2023-03-28T23:49:42.638Z,18.42
2023-03-28T23:52:12.821Z,21.73
2023-03-28T23:54:39.955Z,17.27
2023-03-28T23:57:07.619Z,22.88
2023-03-28T23:59:35.289Z,19.00
